Time;durP1;ratioP1;P1;durP2;ratioP2;P2;SDS_P1;SDS_P2;PMS_P1;PMS_P2;Temp;Humidity;BMP_temperature;BMP_pressure;BME280_temperature;BME280_humidity;BME280_pressure;Samples;Min_cycle;Max_cycle;Signal;HPM_P1;HPM_P2
2021/12/29 00:01:32;;;;;;;0.00;0.00;;;10.60;99.90;;;;;;5055294;28;20112;-69
2021/12/29 00:03:58;;;;;;;0.00;0.00;;;10.70;99.90;;;;;;5055434;28;20055;-69
2021/12/29 00:06:24;;;;;;;0.00;0.00;;;10.70;99.90;;;;;;5055182;28;20036;-69
2021/12/29 00:08:49;;;;;;;0.00;0.00;;;10.80;99.90;;;;;;5055160;28;20033;-69
2021/12/29 00:11:15;;;;;;;0.00;0.00;;;10.70;99.90;;;;;;5055116;28;20037;-69
2021/12/29 00:13:41;;;;;;;0.00;0.00;;;10.70;99.90;;;;;;5055034;28;20029;-69
2021/12/29 00:16:07;;;;;;;0.00;0.00;;;10.60;99.90;;;;;;5054123;28;20033;-69
2021/12/29 00:18:35;;;;;;;0.00;0.00;;;10.60;99.90;;;;;;5055123;28;20036;-69
2021/12/29 00:21:04;;;;;;;0.00;0.00;;;10.60;99.90;;;;;;5054919;28;20470;-69
2021/12/29 00:23:31;;;;;;;0.10;0.10;;;10.60;99.90;;;;;;5054713;28;20087;-69
2021/12/29 00:25:57;;;;;;;0.00;0.00;;;10.60;99.90;;;;;;5054881;28;20238;-69
2021/12/29 00:28:23;;;;;;;0.00;0.00;;;10.60;99.90;;;;;;5055024;28;20031;-69
2021/12/29 00:30:49;;;;;;;0.00;0.00;;;10.50;99.90;;;;;;5055042;28;20044;-69
2021/12/29 00:33:15;;;;;;;0.05;0.05;;;10.50;99.90;;;;;;5053883;28;20040;-69
2021/12/29 00:35:42;;;;;;;0.00;0.00;;;10.60;99.90;;;;;;5054559;28;20033;-69
2021/12/29 00:38:11;;;;;;;0.08;0.08;;;10.50;99.90;;;;;;5054627;28;20401;-69
2021/12/29 00:40:39;;;;;;;0.00;0.00;;;10.60;99.90;;;;;;5054602;28;20603;-69
2021/12/29 00:43:06;;;;;;;0.00;0.00;;;10.50;99.90;;;;;;5054891;28;20048;-69
2021/12/29 00:45:36;;;;;;;0.28;0.28;;;10.50;99.90;;;;;;5054384;28;20040;-69
2021/12/29 00:48:05;;;;;;;0.00;0.00;;;10.50;99.90;;;;;;5051997;28;20053;-69
2021/12/29 00:50:33;;;;;;;0.00;0.00;;;10.50;99.90;;;;;;5053191;28;20381;-69
2021/12/29 00:52:59;;;;;;;0.00;0.00;;;10.60;99.90;;;;;;5053245;28;20035;-69
2021/12/29 00:55:25;;;;;;;0.00;0.00;;;10.60;99.90;;;;;;5051800;28;20481;-69
2021/12/29 00:57:51;;;;;;;0.00;0.00;;;10.60;99.90;;;;;;5053088;28;20107;-69
2021/12/29 01:00:23;;;;;;;0.00;0.00;;;10.70;99.90;;;;;;5053120;28;20037;-69
2021/12/29 01:02:50;;;;;;;0.00;0.00;;;10.50;99.90;;;;;;5053122;28;20090;-69
2021/12/29 01:05:19;;;;;;;0.28;0.28;;;10.50;99.90;;;;;;5052783;28;20032;-69
2021/12/29 01:07:49;;;;;;;0.00;0.00;;;10.50;99.90;;;;;;5052858;28;20036;-69
2021/12/29 01:10:16;;;;;;;0.00;0.00;;;10.50;99.90;;;;;;5051984;28;20033;-69
2021/12/29 01:12:53;;;;;;;0.00;0.00;;;10.50;99.90;;;;;;5053160;28;20048;-69
2021/12/29 01:15:25;;;;;;;0.00;0.00;;;10.40;99.90;;;;;;5052935;28;20032;-69
2021/12/29 01:17:53;;;;;;;0.00;0.00;;;10.40;99.90;;;;;;5053173;28;20591;-70
2021/12/29 01:20:20;;;;;;;0.00;0.00;;;10.40;99.90;;;;;;5051737;28;20040;-69
2021/12/29 01:22:46;;;;;;;0.00;0.00;;;10.40;99.90;;;;;;5051339;28;20025;-69
2021/12/29 01:25:12;;;;;;;0.00;0.00;;;10.30;99.90;;;;;;5053000;28;20029;-69
2021/12/29 01:27:38;;;;;;;0.00;0.00;;;10.50;99.90;;;;;;5052857;28;20037;-69
2021/12/29 01:30:09;;;;;;;0.10;0.10;;;10.30;99.90;;;;;;5052657;28;20041;-69
2021/12/29 01:32:36;;;;;;;0.00;0.00;;;10.20;99.90;;;;;;5035334;28;20044;-69
2021/12/29 01:35:02;;;;;;;0.00;0.00;;;10.20;99.90;;;;;;5052860;28;20451;-69
2021/12/29 01:37:28;;;;;;;0.75;0.55;;;10.30;99.90;;;;;;5052120;28;20540;-69
2021/12/29 01:39:54;;;;;;;0.00;0.00;;;10.10;99.90;;;;;;5052725;28;20033;-69
2021/12/29 01:42:22;;;;;;;0.10;0.10;;;10.20;99.90;;;;;;5052744;28;20029;-69
2021/12/29 01:44:48;;;;;;;0.08;0.08;;;10.20;99.90;;;;;;5052317;28;20057;-69
2021/12/29 01:47:29;;;;;;;0.03;0.03;;;10.10;99.90;;;;;;5014420;28;1103042;-69
2021/12/29 01:49:55;;;;;;;0.00;0.00;;;10.20;99.90;;;;;;5052293;28;20037;-69
2021/12/29 01:52:27;;;;;;;0.10;0.10;;;10.20;99.90;;;;;;5053391;28;20079;-69
2021/12/29 01:54:53;;;;;;;0.00;0.00;;;10.20;99.90;;;;;;5052260;28;20029;-68
2021/12/29 01:57:20;;;;;;;0.30;0.30;;;10.20;99.90;;;;;;5053147;28;20029;-69
2021/12/29 01:59:46;;;;;;;0.00;0.00;;;10.20;99.90;;;;;;5053206;28;20036;-69
2021/12/29 02:02:14;;;;;;;0.00;0.00;;;10.30;99.90;;;;;;5053130;28;20397;-69
2021/12/29 02:04:45;;;;;;;0.00;0.00;;;10.40;99.90;;;;;;5053243;28;20033;-69
2021/12/29 02:07:12;;;;;;;0.00;0.00;;;10.30;99.90;;;;;;5053054;28;20029;-69
2021/12/29 02:09:38;;;;;;;0.00;0.00;;;10.20;99.90;;;;;;5052996;28;20044;-69
2021/12/29 02:12:05;;;;;;;0.00;0.00;;;10.20;99.90;;;;;;5053197;28;20532;-69
2021/12/29 02:14:33;;;;;;;0.00;0.00;;;10.20;99.90;;;;;;5053020;28;20029;-68
2021/12/29 02:16:59;;;;;;;0.00;0.00;;;10.20;99.90;;;;;;5052144;28;20064;-68
2021/12/29 02:19:26;;;;;;;0.00;0.00;;;10.30;99.90;;;;;;5052811;28;20033;-68
2021/12/29 02:24:54;;;;;;;0.03;0.03;;;10.40;99.90;;;;;;5032886;28;20056;-68
2021/12/29 02:27:20;;;;;;;;;;;10.20;99.90;;;;;;5051726;28;20040;-70
2021/12/29 02:29:47;;;;;;;0.00;0.00;;;10.20;99.90;;;;;;5051495;28;19912;-68
2021/12/29 02:32:14;;;;;;;0.00;0.00;;;10.10;99.90;;;;;;5052643;28;20037;-68
2021/12/29 02:34:40;;;;;;;0.00;0.00;;;10.10;99.90;;;;;;5049714;28;20041;-69
2021/12/29 02:37:07;;;;;;;0.00;0.00;;;10.00;99.90;;;;;;5050049;28;20033;-69
2021/12/29 02:39:37;;;;;;;0.00;0.00;;;10.00;99.90;;;;;;5049808;28;20633;-70
2021/12/29 02:42:06;;;;;;;0.00;0.00;;;10.00;99.90;;;;;;5033256;28;20041;-70
2021/12/29 02:44:39;;;;;;;0.00;0.00;;;10.00;99.90;;;;;;5049791;28;20144;-70
2021/12/29 02:47:06;;;;;;;0.00;0.00;;;10.00;99.90;;;;;;5033853;28;20055;-70
2021/12/29 02:49:32;;;;;;;0.00;0.00;;;10.00;99.90;;;;;;5049757;28;20493;-70
2021/12/29 02:51:58;;;;;;;0.00;0.00;;;10.00;99.90;;;;;;5049853;28;20043;-69
2021/12/29 02:54:24;;;;;;;0.00;0.00;;;10.00;99.90;;;;;;5049810;28;20045;-69
2021/12/29 02:56:54;;;;;;;0.00;0.00;;;10.00;99.90;;;;;;5049603;28;20325;-69
2021/12/29 02:59:23;;;;;;;0.40;0.40;;;10.00;99.90;;;;;;5049700;28;20102;-69
2021/12/29 03:01:51;;;;;;;0.00;0.00;;;10.10;99.90;;;;;;5049474;28;20295;-69
2021/12/29 03:04:17;;;;;;;0.00;0.00;;;10.10;99.90;;;;;;5049582;28;20098;-69
2021/12/29 03:06:43;;;;;;;0.00;0.00;;;10.10;99.90;;;;;;5051559;28;20045;-69
2021/12/29 03:09:12;;;;;;;0.00;0.00;;;10.00;99.90;;;;;;5051881;28;20029;-70
2021/12/29 03:11:42;;;;;;;0.00;0.00;;;10.00;99.90;;;;;;5051733;28;20151;-69
2021/12/29 03:14:09;;;;;;;0.00;0.00;;;10.00;99.90;;;;;;5051818;28;20033;-68
2021/12/29 03:16:36;;;;;;;0.00;0.00;;;10.00;99.90;;;;;;5051877;28;20045;-68
2021/12/29 03:19:04;;;;;;;0.40;0.40;;;10.00;99.90;;;;;;5051777;28;20033;-68
2021/12/29 03:21:32;;;;;;;0.00;0.00;;;10.00;99.90;;;;;;5051955;28;20029;-68
2021/12/29 03:23:58;;;;;;;0.00;0.00;;;10.00;99.90;;;;;;5051762;28;20210;-68
2021/12/29 03:26:24;;;;;;;0.00;0.00;;;10.00;99.90;;;;;;5051897;28;20116;-68
2021/12/29 03:28:51;;;;;;;0.00;0.00;;;10.00;99.90;;;;;;5051315;28;20052;-68
2021/12/29 03:31:21;;;;;;;0.00;0.00;;;10.00;99.90;;;;;;5051844;28;20123;-68
2021/12/29 03:33:47;;;;;;;0.10;0.10;;;10.00;99.90;;;;;;5034290;28;20029;-68
2021/12/29 03:36:13;;;;;;;0.00;0.00;;;10.00;99.90;;;;;;5051855;28;20084;-69
2021/12/29 03:38:41;;;;;;;0.00;0.00;;;10.00;99.90;;;;;;5051602;28;20541;-68
2021/12/29 03:41:16;;;;;;;0.00;0.00;;;9.90;99.90;;;;;;5051593;28;20033;-68
2021/12/29 03:43:43;;;;;;;0.20;0.20;;;9.80;99.90;;;;;;5051293;28;20039;-68
2021/12/29 03:46:10;;;;;;;0.00;0.00;;;9.80;99.90;;;;;;5051463;28;20059;-69
2021/12/29 03:48:39;;;;;;;0.00;0.00;;;9.90;99.90;;;;;;5051323;28;20025;-69
2021/12/29 03:51:06;;;;;;;0.00;0.00;;;9.90;99.90;;;;;;5051634;28;20025;-69
2021/12/29 03:53:33;;;;;;;0.00;0.00;;;9.80;99.90;;;;;;5051757;28;20469;-69
2021/12/29 03:56:00;;;;;;;0.00;0.00;;;9.90;99.90;;;;;;5051326;28;20039;-69
2021/12/29 03:58:29;;;;;;;2.42;2.22;;;9.90;99.90;;;;;;5051661;28;20025;-69
2021/12/29 04:01:01;;;;;;;0.08;0.08;;;10.00;99.90;;;;;;5051427;28;20033;-69
2021/12/29 04:03:27;;;;;;;7.20;1.55;;;10.00;99.90;;;;;;5051268;28;20473;-69
2021/12/29 04:05:53;;;;;;;0.00;0.00;;;10.00;99.90;;;;;;5051068;28;20141;-69
2021/12/29 04:08:19;;;;;;;0.00;0.00;;;10.00;99.90;;;;;;5051218;28;20039;-69
2021/12/29 04:10:44;;;;;;;0.00;0.00;;;10.00;99.90;;;;;;5051322;28;20108;-69
2021/12/29 04:13:10;;;;;;;0.00;0.00;;;10.10;99.90;;;;;;5051554;28;20482;-68
2021/12/29 04:15:37;;;;;;;0.00;0.00;;;10.20;99.90;;;;;;5051049;28;20402;-69
2021/12/29 04:18:14;;;;;;;0.00;0.00;;;10.20;99.90;;;;;;5051397;28;20048;-68
2021/12/29 04:20:55;;;;;;;0.35;0.35;;;10.20;99.90;;;;;;5051234;28;20067;-68
2021/12/29 04:23:22;;;;;;;0.00;0.00;;;10.10;99.90;;;;;;5051207;28;20021;-69
2021/12/29 04:25:49;;;;;;;0.00;0.00;;;10.00;99.90;;;;;;5050040;28;20370;-69
2021/12/29 04:28:20;;;;;;;0.00;0.00;;;10.00;99.90;;;;;;5050099;28;20022;-68
2021/12/29 04:30:53;;;;;;;0.00;0.00;;;9.90;99.90;;;;;;5050985;28;20111;-68
2021/12/29 04:33:19;;;;;;;0.00;0.00;;;10.00;99.90;;;;;;5051121;28;20287;-68
2021/12/29 04:35:47;;;;;;;0.00;0.00;;;9.90;99.90;;;;;;5051086;28;20033;-69
2021/12/29 04:38:13;;;;;;;0.00;0.00;;;10.00;99.90;;;;;;5050980;28;20041;-69
2021/12/29 04:40:39;;;;;;;0.00;0.00;;;10.00;99.90;;;;;;5053629;28;20040;-68
2021/12/29 04:43:05;;;;;;;0.10;0.10;;;10.00;99.90;;;;;;5054688;28;20087;-69
2021/12/29 04:45:32;;;;;;;0.00;0.00;;;10.10;99.90;;;;;;5054761;28;20108;-69
2021/12/29 04:47:59;;;;;;;0.00;0.00;;;10.00;99.90;;;;;;5054338;28;20467;-69
2021/12/29 04:50:27;;;;;;;0.00;0.00;;;9.90;99.90;;;;;;5054534;28;20075;-69
2021/12/29 04:52:58;;;;;;;0.55;0.55;;;9.60;99.90;;;;;;5054624;28;20029;-69
2021/12/29 04:55:28;;;;;;;0.00;0.00;;;9.50;99.90;;;;;;5054584;28;20037;-69
2021/12/29 04:57:56;;;;;;;0.00;0.00;;;9.40;99.90;;;;;;5054367;28;20039;-69
2021/12/29 05:00:28;;;;;;;0.00;0.00;;;9.30;99.90;;;;;;5054888;28;20036;-69
2021/12/29 05:02:55;;;;;;;0.00;0.00;;;9.30;99.90;;;;;;5054372;28;20037;-69
2021/12/29 05:08:29;;;;;;;0.00;0.00;;;9.20;99.90;;;;;;5052788;28;20106;-69
2021/12/29 05:11:09;;;;;;;0.00;0.00;;;9.10;99.90;;;;;;5051951;28;20048;-69
2021/12/29 05:13:43;;;;;;;1.45;1.10;;;9.00;99.90;;;;;;5054280;28;20044;-69
2021/12/29 05:16:20;;;;;;;0.10;0.10;;;9.00;99.90;;;;;;5054363;28;20029;-69
2021/12/29 05:18:46;;;;;;;0.00;0.00;;;9.10;99.90;;;;;;5054116;28;20478;-68
2021/12/29 05:21:12;;;;;;;0.00;0.00;;;9.10;99.90;;;;;;5054023;28;20033;-68
2021/12/29 05:23:37;;;;;;;0.00;0.00;;;9.10;99.90;;;;;;5053941;28;20117;-68
2021/12/29 05:26:04;;;;;;;0.00;0.00;;;9.10;99.90;;;;;;5052713;28;20586;-69
2021/12/29 05:28:29;;;;;;;0.43;0.43;;;9.10;99.90;;;;;;5054078;28;20028;-68
2021/12/29 05:30:55;;;;;;;0.00;0.00;;;9.10;99.90;;;;;;5053633;28;20040;-69
2021/12/29 05:33:25;;;;;;;0.08;0.08;;;9.30;99.90;;;;;;5054059;28;20500;-68
2021/12/29 05:35:51;;;;;;;0.00;0.00;;;9.40;99.90;;;;;;5053754;28;20021;-69
2021/12/29 05:38:17;;;;;;;0.10;0.10;;;9.40;99.90;;;;;;5053480;28;20061;-69
2021/12/29 05:40:43;;;;;;;0.00;0.00;;;9.30;99.90;;;;;;5053418;28;20569;-69
2021/12/29 05:43:08;;;;;;;0.00;0.00;;;9.30;99.90;;;;;;5053857;28;20386;-69
2021/12/29 05:45:35;;;;;;;0.00;0.00;;;9.20;99.90;;;;;;5053731;28;20440;-70
2021/12/29 05:48:01;;;;;;;0.00;0.00;;;9.30;99.90;;;;;;5051919;28;20382;-69
2021/12/29 05:50:29;;;;;;;0.03;0.03;;;9.30;99.90;;;;;;5052690;28;20048;-69
2021/12/29 05:52:56;;;;;;;0.10;0.10;;;9.40;99.90;;;;;;5052821;28;20033;-69
2021/12/29 05:55:23;;;;;;;0.20;0.20;;;9.60;99.90;;;;;;5053605;28;20086;-69
2021/12/29 05:57:49;;;;;;;0.00;0.00;;;9.60;99.90;;;;;;5052120;28;20036;-69
2021/12/29 06:00:19;;;;;;;0.10;0.10;;;9.60;99.90;;;;;;5053175;28;20033;-69
2021/12/29 06:02:45;;;;;;;0.00;0.00;;;9.60;99.90;;;;;;5052175;28;20044;-69
2021/12/29 06:05:12;;;;;;;0.00;0.00;;;9.70;99.90;;;;;;5053309;28;20036;-69
2021/12/29 06:07:38;;;;;;;0.00;0.00;;;9.70;99.90;;;;;;5053112;28;20505;-70
2021/12/29 06:10:06;;;;;;;0.00;0.00;;;9.60;99.90;;;;;;5053029;28;20032;-69
2021/12/29 06:12:32;;;;;;;0.00;0.00;;;9.60;99.90;;;;;;5052131;28;20029;-69
2021/12/29 06:14:58;;;;;;;0.00;0.00;;;9.70;99.90;;;;;;5053115;28;20035;-69
2021/12/29 06:17:23;;;;;;;0.00;0.00;;;9.70;99.90;;;;;;5053041;28;20099;-69
2021/12/29 06:19:49;;;;;;;0.00;0.00;;;9.70;99.90;;;;;;5053170;28;20086;-69
2021/12/29 06:22:15;;;;;;;0.00;0.00;;;9.70;99.90;;;;;;5052085;28;20037;-69
2021/12/29 06:24:43;;;;;;;0.00;0.00;;;9.70;99.90;;;;;;5053181;28;20033;-69
2021/12/29 06:27:09;;;;;;;0.00;0.00;;;9.70;99.90;;;;;;5052758;28;20033;-69
2021/12/29 06:29:36;;;;;;;0.22;0.22;;;9.70;99.90;;;;;;5053005;28;20032;-69
2021/12/29 06:32:03;;;;;;;0.20;0.20;;;9.80;99.90;;;;;;5052778;28;20095;-69
2021/12/29 06:34:29;;;;;;;0.00;0.00;;;9.70;99.90;;;;;;5051693;28;20029;-69
2021/12/29 06:36:58;;;;;;;0.22;0.22;;;9.80;99.90;;;;;;5052759;28;20067;-69
2021/12/29 06:39:24;;;;;;;0.00;0.00;;;9.80;99.90;;;;;;5052834;28;20444;-69
2021/12/29 06:41:50;;;;;;;0.00;0.00;;;9.70;99.90;;;;;;5052402;28;20098;-69
2021/12/29 06:44:16;;;;;;;0.00;0.00;;;9.60;99.90;;;;;;5052478;28;20044;-69
2021/12/29 06:46:41;;;;;;;0.00;0.00;;;9.70;99.90;;;;;;5052388;28;20045;-68
2021/12/29 06:49:07;;;;;;;0.00;0.00;;;9.70;99.90;;;;;;5052162;28;20037;-68
2021/12/29 06:51:33;;;;;;;0.00;0.00;;;9.70;99.90;;;;;;5058547;28;20037;-70
2021/12/29 06:53:59;;;;;;;0.20;0.20;;;9.70;99.90;;;;;;5063410;28;20465;-72
2021/12/29 06:56:24;;;;;;;0.00;0.00;;;9.80;99.90;;;;;;5068739;28;20037;-72
2021/12/29 06:58:50;;;;;;;0.00;0.00;;;9.80;99.90;;;;;;5072005;28;20474;-72
2021/12/29 07:01:16;;;;;;;0.00;0.00;;;9.80;99.90;;;;;;5071811;28;20040;-72
2021/12/29 07:03:43;;;;;;;0.15;0.15;;;9.90;99.90;;;;;;5071667;28;20036;-68
2021/12/29 07:06:09;;;;;;;0.00;0.00;;;9.90;99.90;;;;;;5071987;28;20431;-71
2021/12/29 07:08:34;;;;;;;0.00;0.00;;;9.80;99.90;;;;;;5072015;28;20139;-70
2021/12/29 07:11:01;;;;;;;0.00;0.00;;;9.90;99.90;;;;;;5071909;28;20032;-68
2021/12/29 07:13:27;;;;;;;0.00;0.00;;;9.90;99.90;;;;;;5071948;28;20103;-68
2021/12/29 07:15:53;;;;;;;0.00;0.00;;;9.80;99.90;;;;;;5072045;28;20039;-68
2021/12/29 07:18:18;;;;;;;0.00;0.00;;;9.90;99.90;;;;;;5072083;28;20028;-68
2021/12/29 07:20:44;;;;;;;0.32;0.32;;;9.90;99.90;;;;;;5071701;28;20029;-68
2021/12/29 07:23:14;;;;;;;0.00;0.00;;;9.90;99.90;;;;;;5072039;28;20029;-70
2021/12/29 07:25:39;;;;;;;0.00;0.00;;;10.00;99.90;;;;;;5070648;28;20393;-79
2021/12/29 07:28:05;;;;;;;0.80;0.63;;;9.90;99.90;;;;;;5071964;28;20031;-75
2021/12/29 07:30:31;;;;;;;0.00;0.00;;;9.80;99.90;;;;;;5071732;28;20029;-70
2021/12/29 07:32:57;;;;;;;0.00;0.00;;;10.00;99.90;;;;;;5071205;28;20033;-80
2021/12/29 07:35:23;;;;;;;0.00;0.00;;;9.90;99.90;;;;;;5070736;28;20032;-68
2021/12/29 07:37:49;;;;;;;0.98;0.98;;;9.90;99.90;;;;;;5055809;28;20124;-67
2021/12/29 07:40:15;;;;;;;0.00;0.00;;;10.00;99.90;;;;;;5051541;28;20025;-68
2021/12/29 07:42:42;;;;;;;3.30;1.25;;;9.90;99.90;;;;;;5050648;28;20032;-68
2021/12/29 07:45:09;;;;;;;0.00;0.00;;;9.80;99.90;;;;;;5051259;28;20035;-68
2021/12/29 07:47:48;;;;;;;0.00;0.00;;;9.90;99.90;;;;;;5050095;28;20408;-70
2021/12/29 07:50:17;;;;;;;0.00;0.00;;;10.00;99.90;;;;;;5050673;28;20067;-69
2021/12/29 07:52:47;;;;;;;0.00;0.00;;;10.00;99.90;;;;;;5051634;28;20037;-69
2021/12/29 07:55:15;;;;;;;0.00;0.00;;;9.90;99.90;;;;;;5050976;28;20393;-70
2021/12/29 07:57:41;;;;;;;0.00;0.00;;;10.00;99.90;;;;;;5050295;28;20033;-70
2021/12/29 08:00:08;;;;;;;0.00;0.00;;;10.00;99.90;;;;;;5050211;28;20039;-69
2021/12/29 08:02:36;;;;;;;0.20;0.20;;;10.00;99.90;;;;;;5051366;28;20028;-69
2021/12/29 08:05:05;;;;;;;0.00;0.00;;;9.90;99.90;;;;;;5051591;28;20036;-69
2021/12/29 08:07:31;;;;;;;0.00;0.00;;;9.90;99.90;;;;;;5050001;28;20064;-69
2021/12/29 08:09:57;;;;;;;0.00;0.00;;;9.90;99.90;;;;;;5051299;28;20064;-69
2021/12/29 08:12:23;;;;;;;0.00;0.00;;;9.80;99.90;;;;;;5050156;28;20032;-69
2021/12/29 08:14:51;;;;;;;0.00;0.00;;;9.70;99.90;;;;;;5053428;28;20440;-69
2021/12/29 08:17:17;;;;;;;0.08;0.08;;;9.90;99.90;;;;;;5055429;28;20055;-69
2021/12/29 08:19:43;;;;;;;0.00;0.00;;;9.80;99.90;;;;;;5055567;28;20743;-69
2021/12/29 08:22:10;;;;;;;0.00;0.00;;;10.00;99.90;;;;;;5054061;28;20040;-69
2021/12/29 08:24:36;;;;;;;0.00;0.00;;;9.90;99.90;;;;;;5055103;28;20021;-69
2021/12/29 08:27:03;;;;;;;0.20;0.20;;;9.90;99.90;;;;;;5054867;28;20437;-69
2021/12/29 08:29:29;;;;;;;0.00;0.00;;;9.90;99.90;;;;;;5070611;28;20539;-69
2021/12/29 08:31:57;;;;;;;0.00;0.00;;;9.90;99.90;;;;;;5055098;28;20029;-69
2021/12/29 08:34:24;;;;;;;0.10;0.10;;;9.90;99.90;;;;;;5054082;28;20099;-69
2021/12/29 08:36:51;;;;;;;0.00;0.00;;;9.90;99.90;;;;;;5053837;28;20062;-68
2021/12/29 08:39:18;;;;;;;0.00;0.00;;;9.80;99.90;;;;;;5055056;28;20052;-69
2021/12/29 08:41:46;;;;;;;0.00;0.00;;;9.80;99.90;;;;;;5053949;28;20039;-70
2021/12/29 08:44:12;;;;;;;0.03;0.03;;;9.80;99.90;;;;;;5055050;28;20033;-70
2021/12/29 08:46:39;;;;;;;0.00;0.00;;;9.90;99.90;;;;;;5054707;28;20127;-69
2021/12/29 08:49:05;;;;;;;0.00;0.00;;;10.00;99.90;;;;;;5053135;28;20690;-69
2021/12/29 08:51:31;;;;;;;0.00;0.00;;;10.00;99.90;;;;;;5053254;28;20131;-70
2021/12/29 08:53:57;;;;;;;1.35;0.70;;;10.00;99.90;;;;;;5051601;28;20108;-70
2021/12/29 08:56:24;;;;;;;0.20;0.20;;;10.00;99.90;;;;;;5054979;28;20028;-68
2021/12/29 08:58:53;;;;;;;0.00;0.00;;;10.00;99.90;;;;;;5053607;28;20025;-69
2021/12/29 09:01:21;;;;;;;0.00;0.00;;;10.00;99.90;;;;;;5053327;28;20025;-69
2021/12/29 09:03:48;;;;;;;0.00;0.00;;;10.00;99.90;;;;;;5064545;28;20117;-64
2021/12/29 09:06:15;;;;;;;0.88;0.77;;;10.00;99.90;;;;;;5073187;28;20083;-67
2021/12/29 09:08:41;;;;;;;0.10;0.10;;;10.20;99.90;;;;;;5073494;28;20112;-67
2021/12/29 09:11:08;;;;;;;0.20;0.20;;;10.10;99.90;;;;;;5074398;28;20113;-66
2021/12/29 09:13:35;;;;;;;0.00;0.00;;;10.10;99.90;;;;;;5074162;28;20032;-71
2021/12/29 09:16:02;;;;;;;0.38;0.28;;;10.10;99.90;;;;;;5074074;28;20031;-68
2021/12/29 09:18:30;;;;;;;0.20;0.20;;;10.20;99.90;;;;;;5074392;28;20032;-67
2021/12/29 09:21:04;;;;;;;2.35;1.52;;;10.30;99.90;;;;;;5072921;28;20036;-68
2021/12/29 09:23:30;;;;;;;0.00;0.00;;;10.20;99.90;;;;;;5057023;28;20124;-70
2021/12/29 09:25:57;;;;;;;0.00;0.00;;;10.30;99.90;;;;;;5072262;28;20032;-68
2021/12/29 09:28:23;;;;;;;0.00;0.00;;;10.30;99.90;;;;;;5073066;28;20025;-67
2021/12/29 09:30:50;;;;;;;0.00;0.00;;;10.40;99.90;;;;;;5073866;28;20043;-71
2021/12/29 09:33:19;;;;;;;0.88;0.80;;;10.50;99.90;;;;;;5073737;28;20032;-70
2021/12/29 09:35:51;;;;;;;0.00;0.00;;;10.70;99.90;;;;;;5072464;28;20469;-70
2021/12/29 09:38:19;;;;;;;0.10;0.10;;;10.70;99.90;;;;;;5090365;28;20536;-71
2021/12/29 09:40:49;;;;;;;0.00;0.00;;;10.60;99.90;;;;;;5093011;28;20039;-72
2021/12/29 09:43:17;;;;;;;0.00;0.00;;;10.50;99.90;;;;;;5094146;28;20036;-69
2021/12/29 09:45:45;;;;;;;0.90;0.55;;;10.50;99.90;;;;;;5093707;28;20024;-73
2021/12/29 09:48:12;;;;;;;0.00;0.00;;;10.40;99.90;;;;;;5093627;28;20048;-69
2021/12/29 09:50:39;;;;;;;0.47;0.35;;;10.40;99.90;;;;;;5092833;28;20377;-67
2021/12/29 09:53:06;;;;;;;0.20;0.20;;;10.50;99.90;;;;;;5093672;28;20036;-71
2021/12/29 09:55:33;;;;;;;0.00;0.00;;;10.50;99.90;;;;;;5093977;28;20457;-71
2021/12/29 09:58:04;;;;;;;0.00;0.00;;;10.60;99.90;;;;;;5092363;28;20126;-71
2021/12/29 10:00:56;;;;;;;0.00;0.00;;;10.40;99.90;;;;;;5092561;28;20124;-71
2021/12/29 10:03:25;;;;;;;0.00;0.00;;;10.40;99.90;;;;;;5093521;28;20035;-71
2021/12/29 10:05:55;;;;;;;10.02;0.50;;;10.40;99.90;;;;;;5093908;28;20468;-71
2021/12/29 10:08:25;;;;;;;0.08;0.08;;;10.50;99.90;;;;;;5073739;28;20029;-71
2021/12/29 10:10:57;;;;;;;0.00;0.00;;;10.50;99.90;;;;;;5073448;28;20039;-72
2021/12/29 10:13:30;;;;;;;0.10;0.10;;;10.50;99.90;;;;;;5055760;28;20062;-71
2021/12/29 10:16:06;;;;;;;0.00;0.00;;;10.40;99.90;;;;;;5072083;28;20040;-70
2021/12/29 10:18:36;;;;;;;0.20;0.20;;;10.40;99.90;;;;;;5072187;28;20048;-70
2021/12/29 10:21:11;;;;;;;0.30;0.30;;;10.40;99.90;;;;;;5071644;28;20511;-69
2021/12/29 10:23:48;;;;;;;0.40;0.40;;;10.40;99.90;;;;;;5071784;28;20282;-69
2021/12/29 10:26:37;;;;;;;0.10;0.10;;;10.40;99.90;;;;;;5072997;28;20036;-70
2021/12/29 10:29:08;;;;;;;0.08;0.08;;;10.40;99.90;;;;;;5071270;28;20104;-69
2021/12/29 10:31:48;;;;;;;0.40;0.40;;;10.30;99.90;;;;;;5072872;28;20032;-71
2021/12/29 10:34:21;;;;;;;9.63;0.25;;;10.20;99.90;;;;;;5072530;28;20060;-71
2021/12/29 10:37:04;;;;;;;0.30;0.30;;;10.30;99.90;;;;;;5077490;28;20028;-71
2021/12/29 10:39:38;;;;;;;0.00;0.00;;;10.20;99.90;;;;;;5092950;28;20560;-71
2021/12/29 10:42:10;;;;;;;0.05;0.05;;;10.20;99.90;;;;;;5093082;28;20036;-71
2021/12/29 10:44:40;;;;;;;21.02;1.45;;;10.20;99.90;;;;;;5091980;28;20024;-72
2021/12/29 10:47:30;;;;;;;8.13;1.35;;;10.20;99.90;;;;;;5091258;28;20143;-72
2021/12/29 10:50:03;;;;;;;0.10;0.10;;;10.30;99.90;;;;;;5091735;28;20060;-71
2021/12/29 10:52:49;;;;;;;0.00;0.00;;;10.30;99.90;;;;;;5092642;28;20114;-71
2021/12/29 10:55:35;;;;;;;0.10;0.10;;;10.40;99.90;;;;;;5092771;28;20433;-72
2021/12/29 10:58:00;;;;;;;0.75;0.75;;;10.30;99.90;;;;;;5091568;28;20399;-72
2021/12/29 11:00:26;;;;;;;0.03;0.03;;;10.30;99.90;;;;;;5092923;28;20119;-72
2021/12/29 11:02:53;;;;;;;0.32;0.30;;;10.40;99.90;;;;;;5091509;28;20028;-71
2021/12/29 11:05:18;;;;;;;0.00;0.00;;;10.40;99.90;;;;;;5092290;28;20036;-71
2021/12/29 11:07:44;;;;;;;0.00;0.00;;;10.30;99.90;;;;;;5067475;28;20045;-71
2021/12/29 11:10:16;;;;;;;0.00;0.00;;;10.40;99.90;;;;;;5055011;28;20477;-71
2021/12/29 11:12:46;;;;;;;0.00;0.00;;;10.30;99.90;;;;;;5086076;28;20037;-71
2021/12/29 11:15:23;;;;;;;0.10;0.10;;;10.10;99.90;;;;;;5072181;28;20107;-70
2021/12/29 11:17:51;;;;;;;1.30;1.17;;;10.20;99.90;;;;;;5072003;28;20035;-71
2021/12/29 11:20:24;;;;;;;0.00;0.00;;;10.20;99.90;;;;;;5070559;28;20535;-71
2021/12/29 11:22:51;;;;;;;0.00;0.00;;;10.10;99.90;;;;;;5071131;28;20032;-70
2021/12/29 11:25:30;;;;;;;0.20;0.20;;;10.10;99.90;;;;;;5070453;28;20486;-70
2021/12/29 11:27:55;;;;;;;0.03;0.03;;;10.00;99.90;;;;;;5054158;28;20037;-70
2021/12/29 11:30:22;;;;;;;0.00;0.00;;;10.10;99.90;;;;;;5071601;28;20032;-71
2021/12/29 11:32:48;;;;;;;0.00;0.00;;;10.10;99.90;;;;;;5072192;28;20145;-71
2021/12/29 11:35:20;;;;;;;0.00;0.00;;;10.00;99.90;;;;;;5053811;28;20056;-71
2021/12/29 11:37:56;;;;;;;0.03;0.03;;;10.00;99.90;;;;;;5071611;28;20098;-71
2021/12/29 11:40:29;;;;;;;0.10;0.10;;;10.00;99.90;;;;;;5070803;28;20024;-71
2021/12/29 11:42:55;;;;;;;0.98;0.45;;;9.80;99.90;;;;;;5070575;28;20054;-71
2021/12/29 11:45:22;;;;;;;0.00;0.00;;;9.80;99.90;;;;;;5070607;28;20037;-71
2021/12/29 11:47:49;;;;;;;0.00;0.00;;;9.80;99.90;;;;;;5070391;28;20123;-71
2021/12/29 11:50:27;;;;;;;0.00;0.00;;;9.80;99.90;;;;;;5075821;28;20041;-71
2021/12/29 11:53:30;;;;;;;0.17;0.17;;;9.80;99.90;;;;;;5074572;28;20059;-72
2021/12/29 11:56:08;;;;;;;0.00;0.00;;;9.90;99.90;;;;;;5075688;28;20133;-72
2021/12/29 11:58:41;;;;;;;0.00;0.00;;;9.90;99.90;;;;;;5075866;28;20059;-71
2021/12/29 12:01:19;;;;;;;0.00;0.00;;;9.90;99.90;;;;;;5074361;28;20021;-72
2021/12/29 12:03:51;;;;;;;0.17;0.17;;;9.80;99.90;;;;;;5058610;28;20051;-72
2021/12/29 12:06:21;;;;;;;0.08;0.08;;;9.70;99.90;;;;;;5075249;28;20024;-72
2021/12/29 12:08:47;;;;;;;0.00;0.00;;;9.70;99.90;;;;;;5075740;28;20089;-72
2021/12/29 12:11:27;;;;;;;1.08;1.02;;;9.70;99.90;;;;;;5073169;28;20037;-71
2021/12/29 12:13:54;;;;;;;0.43;0.43;;;9.70;99.90;;;;;;5074213;28;20036;-71
2021/12/29 12:16:27;;;;;;;0.10;0.10;;;9.70;99.90;;;;;;5075145;28;20059;-72
2021/12/29 12:18:56;;;;;;;0.10;0.10;;;9.70;99.90;;;;;;5074042;28;20040;-71
2021/12/29 12:21:39;;;;;;;0.20;0.20;;;9.70;99.90;;;;;;5074083;28;20028;-70
2021/12/29 12:24:23;;;;;;;0.00;0.00;;;9.80;99.90;;;;;;5058440;28;20050;-72
2021/12/29 12:27:11;;;;;;;0.00;0.00;;;9.60;99.90;;;;;;5075141;28;20036;-71
2021/12/29 12:29:44;;;;;;;0.00;0.00;;;9.60;99.90;;;;;;5075237;28;20029;-72
2021/12/29 12:32:20;;;;;;;5.05;1.45;;;9.60;99.90;;;;;;5073922;28;20120;-71
2021/12/29 12:35:04;;;;;;;0.30;0.30;;;9.60;99.90;;;;;;5073723;28;20469;-70
2021/12/29 12:37:40;;;;;;;0.63;0.63;;;9.70;99.90;;;;;;5090412;28;20036;-68
2021/12/29 12:40:13;;;;;;;0.20;0.20;;;9.70;99.90;;;;;;5074900;28;20063;-71
2021/12/29 12:42:41;;;;;;;0.10;0.10;;;9.60;99.90;;;;;;5074626;28;20025;-71
2021/12/29 12:45:23;;;;;;;0.00;0.00;;;9.60;99.90;;;;;;5074731;28;20024;-71
2021/12/29 12:47:49;;;;;;;0.00;0.00;;;9.70;99.90;;;;;;5056971;28;20051;-70
2021/12/29 12:50:28;;;;;;;0.00;0.00;;;9.70;99.90;;;;;;5073626;28;20032;-71
2021/12/29 12:52:56;;;;;;;0.70;0.70;;;9.70;99.90;;;;;;5074346;28;20036;-70
2021/12/29 12:55:26;;;;;;;0.10;0.10;;;9.70;99.90;;;;;;5074586;28;20024;-71
2021/12/29 12:57:52;;;;;;;11.57;2.13;;;9.70;99.90;;;;;;5070057;28;20374;-71
2021/12/29 13:00:18;;;;;;;0.00;0.00;;;9.70;99.90;;;;;;5052718;28;20037;-70
2021/12/29 13:03:08;;;;;;;0.00;0.00;;;9.80;99.90;;;;;;5054631;28;20071;-71
2021/12/29 13:05:58;;;;;;;8.10;1.35;;;9.80;99.90;;;;;;5037526;28;20047;-72